עמוד ראשי
METAR-TAF:

METAR-TAF

שדות תעופה :

Puerto Peñasco, מקסיקו

קו רוחב: 31-21-07N, קו אורך: 113-18-20W, גובה: 22מטר

תצפית מזג אוויר נוכחית

הדו"ח נערך לפני 10 שעות ו 27דקות, בשעה 23:41 UTC
רוח 12קשר מכיוון דרום-מזרח
טמפרטורת 35 צלסיוס
לחות 19%
לחץ 1004 hPa
ראות: 16.1קילומטר
שמיים נקיים

METAR: MMPE 152341Z 14012KT 10SM SKC 35/08 A2966 RMK HZY

זמן: 03:08 (10:08 UTC)


TAF: חסר

תצפיות ותחזיות מזג אוויר לגבי יותר מ- 4,000 שדות תעופה ברחבי העולם. דוחות METAR ו- TAF.

התחנות הזמינות מסומנות בנקודות צהובות ואדומות על גבי המפה.

העבר את העכבר לנקודה הצבעונית על מנת לראות את שם התחנה.

לאחר מכן, לחץ כדי לראות את תוכן ואת תחזיות מזג האוויר.

כדי לשנות את המפה: לחץ על הכפתורים הירוקים עם הפלוס השחור כדי להתקרב; על הכפתור הירוק עם המקף כדי להתרחק; או בחיצים הירוקים למפות סמוכות.


METAR-TAF: